Time;durP1;ratioP1;P1;durP2;ratioP2;P2;SDS_P1;SDS_P2;PMS_P1;PMS_P2;Temp;Humidity;BMP_temperature;BMP_pressure;BME280_temperature;BME280_humidity;BME280_pressure;Samples;Min_cycle;Max_cycle;Signal;HPM_P1;HPM_P2
2023/07/18 00:00:18;;;;;;;5.90;4.47;;;;;;;;;;5017677;28;20108;-76
2023/07/18 00:02:44;;;;;;;10.60;4.53;;;;;;;;;;5018269;28;20030;-76
2023/07/18 00:05:13;;;;;;;9.48;4.38;;;;;;;;;;5014692;28;20026;-76
2023/07/18 00:07:40;;;;;;;12.32;4.25;;;;;;;;;;5023156;28;20032;-76
2023/07/18 00:10:06;;;;;;;4.78;3.67;;;;;;;;;;5059144;28;20122;-77
2023/07/18 00:12:32;;;;;;;9.02;4.30;;;;;;;;;;5057441;28;20029;-77
2023/07/18 00:14:57;;;;;;;6.93;4.47;;;;;;;;;;5045591;28;20039;-77
2023/07/18 00:17:23;;;;;;;8.68;4.10;;;;;;;;;;5044295;28;20025;-77
2023/07/18 00:19:50;;;;;;;7.47;4.40;;;;;;;;;;5036359;28;20107;-77
2023/07/18 00:22:15;;;;;;;11.05;4.38;;;;;;;;;;5040104;28;20037;-77
2023/07/18 00:24:40;;;;;;;6.70;4.28;;;;;;;;;;5045085;28;20060;-77
2023/07/18 00:27:06;;;;;;;8.57;3.90;;;;;;;;;;5057199;28;20025;-77
2023/07/18 00:29:31;;;;;;;7.55;3.92;;;;;;;;;;5031834;28;20040;-77
2023/07/18 00:31:57;;;;;;;9.27;3.92;;;;;;;;;;5036480;28;20120;-77
2023/07/18 00:34:22;;;;;;;7.90;4.05;;;;;;;;;;5017695;28;20062;-77
2023/07/18 00:36:47;;;;;;;7.90;4.32;;;;;;;;;;5020015;28;20021;-77
2023/07/18 00:39:13;;;;;;;8.50;3.92;;;;;;;;;;5036774;28;20140;-77
2023/07/18 00:41:38;;;;;;;7.45;3.90;;;;;;;;;;5043926;28;20091;-77
2023/07/18 00:44:04;;;;;;;8.20;3.72;;;;;;;;;;5045520;28;20110;-77
2023/07/18 00:46:29;;;;;;;6.40;4.10;;;;;;;;;;5041648;28;20017;-77
2023/07/18 00:48:54;;;;;;;9.30;4.47;;;;;;;;;;5040214;28;20025;-77
2023/07/18 00:51:21;;;;;;;6.63;4.25;;;;;;;;;;5042603;28;20724;-77
2023/07/18 00:53:47;;;;;;;7.82;4.72;;;;;;;;;;5042428;28;20025;-77
2023/07/18 00:56:13;;;;;;;5.10;4.03;;;;;;;;;;5043908;28;20523;-77
2023/07/18 00:58:39;;;;;;;6.60;4.32;;;;;;;;;;5043875;28;20043;-77
2023/07/18 01:01:04;;;;;;;6.43;4.00;;;;;;;;;;5040860;28;20466;-77
2023/07/18 01:03:30;;;;;;;10.23;4.15;;;;;;;;;;5039691;28;20040;-77
2023/07/18 01:05:55;;;;;;;5.15;3.75;;;;;;;;;;5045669;28;20075;-77
2023/07/18 01:08:21;;;;;;;7.07;3.88;;;;;;;;;;5043479;28;20201;-76
2023/07/18 01:10:46;;;;;;;8.38;4.03;;;;;;;;;;5038710;28;20581;-76
2023/07/18 01:13:12;;;;;;;8.00;4.32;;;;;;;;;;5035455;28;20035;-76
2023/07/18 01:15:38;;;;;;;9.90;4.20;;;;;;;;;;5038264;28;20041;-76
2023/07/18 01:18:07;;;;;;;10.40;4.57;;;;;;;;;;5042163;28;20094;-76
2023/07/18 01:20:33;;;;;;;7.07;4.60;;;;;;;;;;5042528;28;20036;-76
2023/07/18 01:23:00;;;;;;;11.43;4.40;;;;;;;;;;5044253;28;20028;-76
2023/07/18 01:25:26;;;;;;;10.23;4.50;;;;;;;;;;5037248;28;20066;-77
2023/07/18 01:27:54;;;;;;;4.80;4.05;;;;;;;;;;5034624;28;20030;-76
2023/07/18 01:30:21;;;;;;;8.65;4.28;;;;;;;;;;5039888;28;20021;-76
2023/07/18 01:32:50;;;;;;;5.50;4.03;;;;;;;;;;5041550;28;20082;-76
2023/07/18 01:35:17;;;;;;;10.10;4.47;;;;;;;;;;5042931;28;20100;-76
2023/07/18 01:37:44;;;;;;;4.60;3.78;;;;;;;;;;5041637;28;20031;-76
2023/07/18 01:40:14;;;;;;;8.20;4.13;;;;;;;;;;5036005;28;20056;-76
2023/07/18 01:42:40;;;;;;;11.82;4.32;;;;;;;;;;5041034;28;20047;-76
2023/07/18 01:45:06;;;;;;;5.80;3.83;;;;;;;;;;5039555;28;20036;-78
2023/07/18 01:47:32;;;;;;;14.23;4.72;;;;;;;;;;5038370;28;20032;-76
2023/07/18 01:49:59;;;;;;;8.73;4.10;;;;;;;;;;5040722;28;20626;-76
2023/07/18 01:52:27;;;;;;;8.18;4.32;;;;;;;;;;5037813;28;20064;-76
2023/07/18 01:54:54;;;;;;;8.75;4.90;;;;;;;;;;5043510;28;20033;-76
2023/07/18 01:57:19;;;;;;;6.75;4.43;;;;;;;;;;5035044;28;21196;-76
2023/07/18 01:59:44;;;;;;;8.70;4.32;;;;;;;;;;5038868;28;20112;-77
2023/07/18 02:02:10;;;;;;;7.15;4.20;;;;;;;;;;5044753;28;20075;-78
2023/07/18 02:04:36;;;;;;;7.00;4.70;;;;;;;;;;5041260;28;20017;-77
2023/07/18 02:07:01;;;;;;;10.98;4.82;;;;;;;;;;5041742;28;20021;-77
2023/07/18 02:09:28;;;;;;;9.68;4.88;;;;;;;;;;5043525;28;20047;-77
2023/07/18 02:11:53;;;;;;;6.20;4.28;;;;;;;;;;5043692;28;20110;-77
2023/07/18 02:14:20;;;;;;;7.00;4.53;;;;;;;;;;5032142;28;21880;-76
2023/07/18 02:16:45;;;;;;;7.20;4.80;;;;;;;;;;5035719;28;20452;-77
2023/07/18 02:19:10;;;;;;;11.65;4.63;;;;;;;;;;5040963;28;20109;-77
2023/07/18 02:21:36;;;;;;;8.55;4.78;;;;;;;;;;5041074;28;20026;-77
2023/07/18 02:24:03;;;;;;;9.02;4.75;;;;;;;;;;5042994;28;20517;-77
2023/07/18 02:26:29;;;;;;;10.45;5.40;;;;;;;;;;5043449;28;20033;-76
2023/07/18 02:28:55;;;;;;;9.45;5.07;;;;;;;;;;5044531;28;20025;-78
2023/07/18 02:31:21;;;;;;;9.82;5.00;;;;;;;;;;5043948;28;20428;-77
2023/07/18 02:33:46;;;;;;;11.48;4.78;;;;;;;;;;5042083;28;20033;-76
2023/07/18 02:36:12;;;;;;;12.27;4.60;;;;;;;;;;5042242;28;20067;-76
2023/07/18 02:38:37;;;;;;;8.27;4.80;;;;;;;;;;5038364;28;20029;-77
2023/07/18 02:41:02;;;;;;;7.00;4.68;;;;;;;;;;5037768;28;20021;-77
2023/07/18 02:43:28;;;;;;;8.55;4.45;;;;;;;;;;5037973;28;20024;-77
2023/07/18 02:45:53;;;;;;;7.35;5.15;;;;;;;;;;5039423;28;20032;-77
2023/07/18 02:48:18;;;;;;;12.82;5.32;;;;;;;;;;5037589;28;20072;-76
2023/07/18 02:50:44;;;;;;;8.68;5.80;;;;;;;;;;5039360;28;20098;-77
2023/07/18 02:53:10;;;;;;;11.10;5.88;;;;;;;;;;5042787;28;20025;-77
2023/07/18 02:55:35;;;;;;;11.10;5.55;;;;;;;;;;5040238;28;20021;-77
2023/07/18 02:58:01;;;;;;;10.75;5.07;;;;;;;;;;5042994;28;20025;-76
2023/07/18 03:00:26;;;;;;;11.88;5.63;;;;;;;;;;5042227;28;20017;-77
2023/07/18 03:02:52;;;;;;;9.98;5.70;;;;;;;;;;5040113;28;20029;-77
2023/07/18 03:05:22;;;;;;;13.18;5.32;;;;;;;;;;5039172;28;20374;-77
2023/07/18 03:07:47;;;;;;;12.95;5.57;;;;;;;;;;5034782;28;20108;-76
2023/07/18 03:10:13;;;;;;;10.82;5.20;;;;;;;;;;5039033;28;20159;-76
2023/07/18 03:12:40;;;;;;;11.85;6.57;;;;;;;;;;5038288;28;20100;-76
2023/07/18 03:15:07;;;;;;;9.93;6.00;;;;;;;;;;5038987;28;20370;-76
2023/07/18 03:17:32;;;;;;;14.05;6.03;;;;;;;;;;5058197;28;20028;-77
2023/07/18 03:19:58;;;;;;;9.45;5.93;;;;;;;;;;5039940;28;20074;-78
2023/07/18 03:22:23;;;;;;;12.80;6.22;;;;;;;;;;5036788;28;20118;-77
2023/07/18 03:24:48;;;;;;;15.88;6.85;;;;;;;;;;5038880;28;20022;-76
2023/07/18 03:27:14;;;;;;;9.77;6.35;;;;;;;;;;5037291;28;20497;-77
2023/07/18 03:29:39;;;;;;;14.35;6.82;;;;;;;;;;5053992;28;20017;-78
2023/07/18 03:32:05;;;;;;;10.05;6.10;;;;;;;;;;5038104;28;20028;-77
2023/07/18 03:34:31;;;;;;;10.13;6.70;;;;;;;;;;5041479;28;20178;-77
2023/07/18 03:36:56;;;;;;;13.02;7.18;;;;;;;;;;5038871;28;20400;-77
2023/07/18 03:39:22;;;;;;;13.45;6.65;;;;;;;;;;5041368;28;20021;-76
2023/07/18 03:41:47;;;;;;;13.93;6.10;;;;;;;;;;5044958;28;20079;-76
2023/07/18 03:44:12;;;;;;;13.55;6.35;;;;;;;;;;5043887;28;20277;-76
2023/07/18 03:46:37;;;;;;;12.98;5.78;;;;;;;;;;5042054;28;20389;-77
2023/07/18 03:49:04;;;;;;;16.33;6.13;;;;;;;;;;5047586;28;20035;-78
2023/07/18 03:51:29;;;;;;;11.00;5.68;;;;;;;;;;5042054;28;20020;-78
2023/07/18 03:53:54;;;;;;;12.65;5.43;;;;;;;;;;5041509;28;20074;-77
2023/07/18 03:56:20;;;;;;;12.73;5.68;;;;;;;;;;5060619;22;20041;-82
2023/07/18 03:58:45;;;;;;;7.03;5.78;;;;;;;;;;5031040;28;20025;-84
2023/07/18 04:01:13;;;;;;;11.18;6.22;;;;;;;;;;5020624;28;20105;-82
2023/07/18 04:03:39;;;;;;;9.55;5.40;;;;;;;;;;5035413;28;20500;-84
2023/07/18 04:06:05;;;;;;;13.93;5.65;;;;;;;;;;5014585;28;20117;-82
2023/07/18 04:08:31;;;;;;;9.23;5.35;;;;;;;;;;5012387;28;20022;-82
2023/07/18 04:10:57;;;;;;;13.20;6.15;;;;;;;;;;5010912;28;20167;-83
2023/07/18 04:13:24;;;;;;;10.50;5.53;;;;;;;;;;5012171;28;20137;-82
2023/07/18 04:15:49;;;;;;;8.55;4.97;;;;;;;;;;5012830;28;20021;-82
2023/07/18 04:18:14;;;;;;;8.30;4.90;;;;;;;;;;5010067;28;20026;-82
2023/07/18 04:20:40;;;;;;;6.18;4.35;;;;;;;;;;5013427;28;20025;-82
2023/07/18 04:23:05;;;;;;;8.15;4.65;;;;;;;;;;5010385;28;20128;-82
2023/07/18 04:25:37;;;;;;;9.75;5.10;;;;;;;;;;5010867;28;20485;-82
2023/07/18 04:28:02;;;;;;;9.93;4.95;;;;;;;;;;5013450;28;20108;-82
2023/07/18 04:30:28;;;;;;;8.05;4.95;;;;;;;;;;5014359;28;20022;-82
2023/07/18 04:32:53;;;;;;;10.00;5.38;;;;;;;;;;5016848;28;20089;-82
2023/07/18 04:35:18;;;;;;;9.45;4.80;;;;;;;;;;5012281;28;20018;-82
2023/07/18 04:37:44;;;;;;;12.20;5.05;;;;;;;;;;5012240;28;20051;-82
2023/07/18 04:40:10;;;;;;;8.75;4.88;;;;;;;;;;5013465;28;20036;-82
2023/07/18 04:42:37;;;;;;;8.60;5.22;;;;;;;;;;5013361;28;20065;-82
2023/07/18 04:45:05;;;;;;;8.30;5.15;;;;;;;;;;5012791;28;20018;-81
2023/07/18 04:47:31;;;;;;;22.33;5.68;;;;;;;;;;5012925;28;20892;-80
2023/07/18 04:49:56;;;;;;;9.35;5.13;;;;;;;;;;5014378;28;20057;-81
2023/07/18 04:52:22;;;;;;;14.25;5.00;;;;;;;;;;5010755;28;20048;-82
2023/07/18 04:54:47;;;;;;;13.73;4.93;;;;;;;;;;5012615;28;20029;-82
2023/07/18 04:57:12;;;;;;;12.18;5.00;;;;;;;;;;5005806;28;20026;-81
2023/07/18 04:59:38;;;;;;;6.90;4.32;;;;;;;;;;5014156;28;20066;-84
2023/07/18 05:02:03;;;;;;;11.80;4.75;;;;;;;;;;5006632;28;20524;-85
2023/07/18 05:04:29;;;;;;;6.65;4.28;;;;;;;;;;5002339;28;20025;-84
2023/07/18 05:06:54;;;;;;;8.63;4.43;;;;;;;;;;5000368;28;20026;-83
2023/07/18 05:09:19;;;;;;;7.53;4.50;;;;;;;;;;5005144;28;20019;-84
2023/07/18 05:11:46;;;;;;;11.45;4.35;;;;;;;;;;5006271;28;20086;-83
2023/07/18 05:14:11;;;;;;;6.38;4.15;;;;;;;;;;5005258;28;20506;-82
2023/07/18 05:16:37;;;;;;;6.55;4.32;;;;;;;;;;5010370;28;20036;-84
2023/07/18 05:19:02;;;;;;;8.73;4.35;;;;;;;;;;5012285;28;20034;-83
2023/07/18 05:21:27;;;;;;;12.93;4.28;;;;;;;;;;5015082;28;20025;-82
2023/07/18 05:23:53;;;;;;;8.18;4.25;;;;;;;;;;5008679;28;20021;-82
2023/07/18 05:26:18;;;;;;;8.73;4.15;;;;;;;;;;5009986;28;20435;-83
2023/07/18 05:28:43;;;;;;;10.38;4.53;;;;;;;;;;5010371;28;20216;-83
2023/07/18 05:31:09;;;;;;;5.55;4.30;;;;;;;;;;5007868;28;20081;-80
2023/07/18 05:33:35;;;;;;;6.32;3.90;;;;;;;;;;4996241;28;20038;-81
2023/07/18 05:36:00;;;;;;;7.63;3.67;;;;;;;;;;4999669;28;20037;-78
2023/07/18 05:38:25;;;;;;;5.07;3.92;;;;;;;;;;5021749;28;20064;-81
2023/07/18 05:40:51;;;;;;;6.07;3.75;;;;;;;;;;5013846;28;20033;-81
2023/07/18 05:43:18;;;;;;;6.57;3.80;;;;;;;;;;5014282;28;20041;-82
2023/07/18 05:45:43;;;;;;;5.97;4.20;;;;;;;;;;5012856;28;20366;-82
2023/07/18 05:48:09;;;;;;;8.60;3.75;;;;;;;;;;5014061;28;20057;-81
2023/07/18 05:50:40;;;;;;;7.13;3.65;;;;;;;;;;5007705;28;20022;-79
2023/07/18 05:53:05;;;;;;;9.10;4.13;;;;;;;;;;4997107;28;20085;-81
2023/07/18 05:55:31;;;;;;;10.77;3.92;;;;;;;;;;4994554;28;20030;-79
2023/07/18 05:57:56;;;;;;;7.97;3.97;;;;;;;;;;4994498;28;20026;-82
2023/07/18 06:00:21;;;;;;;11.60;3.80;;;;;;;;;;4993792;28;20026;-82
2023/07/18 06:02:48;;;;;;;6.70;3.40;;;;;;;;;;4994454;28;20028;-82
2023/07/18 06:05:13;;;;;;;6.88;3.60;;;;;;;;;;4994236;28;20037;-81
2023/07/18 06:07:39;;;;;;;4.85;3.00;;;;;;;;;;4993949;28;20019;-80
2023/07/18 06:10:05;;;;;;;6.68;2.83;;;;;;;;;;4994244;28;20038;-82
2023/07/18 06:12:30;;;;;;;5.78;3.53;;;;;;;;;;5011488;28;20404;-82
2023/07/18 06:14:55;;;;;;;10.40;3.70;;;;;;;;;;5012143;28;20128;-82
2023/07/18 06:17:21;;;;;;;7.97;3.80;;;;;;;;;;5012562;28;20106;-81
2023/07/18 06:19:46;;;;;;;5.05;3.60;;;;;;;;;;5013305;28;20034;-83
2023/07/18 06:22:12;;;;;;;7.40;3.15;;;;;;;;;;5013512;28;20028;-81
2023/07/18 06:24:37;;;;;;;7.82;3.15;;;;;;;;;;5013159;28;20379;-83
2023/07/18 06:27:03;;;;;;;7.05;3.83;;;;;;;;;;5012034;28;20021;-80
2023/07/18 06:29:28;;;;;;;5.47;3.10;;;;;;;;;;5013464;28;20055;-80
2023/07/18 06:31:56;;;;;;;5.70;3.33;;;;;;;;;;5013617;28;20030;-78
2023/07/18 06:34:22;;;;;;;7.68;3.55;;;;;;;;;;5009573;28;20095;-80
2023/07/18 06:36:47;;;;;;;6.95;3.13;;;;;;;;;;5012626;28;20073;-82
2023/07/18 06:39:13;;;;;;;5.25;3.28;;;;;;;;;;5010567;28;20128;-78
2023/07/18 06:41:40;;;;;;;7.78;3.50;;;;;;;;;;4993756;28;20022;-80
2023/07/18 06:44:07;;;;;;;7.57;3.70;;;;;;;;;;5014187;28;20030;-80
2023/07/18 06:46:33;;;;;;;7.82;3.80;;;;;;;;;;5014901;28;20033;-82
2023/07/18 06:48:58;;;;;;;7.18;3.90;;;;;;;;;;5006925;28;20045;-82
2023/07/18 06:51:23;;;;;;;12.40;4.18;;;;;;;;;;5013916;28;20052;-83
2023/07/18 06:53:49;;;;;;;8.70;4.07;;;;;;;;;;5001325;28;20459;-79
2023/07/18 06:56:14;;;;;;;9.50;3.92;;;;;;;;;;4993428;28;20361;-82
2023/07/18 06:58:39;;;;;;;7.45;3.92;;;;;;;;;;4999727;28;20040;-82
2023/07/18 07:01:05;;;;;;;12.45;4.10;;;;;;;;;;4994191;28;20505;-84
2023/07/18 07:03:31;;;;;;;6.55;3.92;;;;;;;;;;5006848;28;20527;-80
2023/07/18 07:05:57;;;;;;;7.35;4.00;;;;;;;;;;5012812;28;20026;-81
2023/07/18 07:08:22;;;;;;;6.18;3.80;;;;;;;;;;5006513;28;20753;-82
2023/07/18 07:10:48;;;;;;;5.72;4.00;;;;;;;;;;5000657;28;20061;-78
2023/07/18 07:13:13;;;;;;;7.75;3.80;;;;;;;;;;5000561;28;20026;-81
2023/07/18 07:15:38;;;;;;;11.00;4.40;;;;;;;;;;5003177;28;20057;-82
2023/07/18 07:18:05;;;;;;;9.15;4.80;;;;;;;;;;5011823;28;20091;-80
2023/07/18 07:20:31;;;;;;;7.38;4.25;;;;;;;;;;5013765;28;20481;-80
2023/07/18 07:22:57;;;;;;;8.95;4.10;;;;;;;;;;5012698;28;20037;-81
2023/07/18 07:25:26;;;;;;;10.20;4.05;;;;;;;;;;5008959;28;20612;-81
2023/07/18 07:27:51;;;;;;;6.10;4.00;;;;;;;;;;4990155;28;20015;-83
2023/07/18 07:30:17;;;;;;;7.40;4.28;;;;;;;;;;5006783;28;20181;-81
2023/07/18 07:32:51;;;;;;;15.70;4.30;;;;;;;;;;5000648;28;20360;-81
2023/07/18 07:35:18;;;;;;;7.03;4.05;;;;;;;;;;5005118;28;20121;-82
2023/07/18 07:37:44;;;;;;;6.07;4.25;;;;;;;;;;5005589;28;20018;-80
2023/07/18 07:40:11;;;;;;;7.80;4.05;;;;;;;;;;5005745;28;20089;-81
2023/07/18 07:42:41;;;;;;;7.18;4.25;;;;;;;;;;5003135;28;20675;-81
2023/07/18 07:45:07;;;;;;;7.40;4.30;;;;;;;;;;5015609;28;20022;-78
2023/07/18 07:47:33;;;;;;;10.85;4.15;;;;;;;;;;5007445;28;20021;-82
2023/07/18 07:49:59;;;;;;;9.30;4.78;;;;;;;;;;5010881;28;20034;-81
2023/07/18 07:52:24;;;;;;;5.78;3.90;;;;;;;;;;5007749;28;20149;-81
2023/07/18 07:54:50;;;;;;;8.35;4.40;;;;;;;;;;5005124;28;20168;-78
2023/07/18 07:57:15;;;;;;;9.15;5.00;;;;;;;;;;5000937;28;20132;-81
2023/07/18 07:59:42;;;;;;;7.13;4.57;;;;;;;;;;4996732;28;20045;-80
2023/07/18 08:02:07;;;;;;;6.95;4.47;;;;;;;;;;4995953;28;20402;-80
2023/07/18 08:04:32;;;;;;;8.40;4.20;;;;;;;;;;4981131;28;20017;-78
2023/07/18 08:06:58;;;;;;;8.07;4.22;;;;;;;;;;5000660;28;20029;-80
2023/07/18 08:09:23;;;;;;;7.20;4.05;;;;;;;;;;5006120;28;20526;-81
2023/07/18 08:11:49;;;;;;;7.88;4.80;;;;;;;;;;5002925;28;20045;-80
2023/07/18 08:14:15;;;;;;;5.85;4.38;;;;;;;;;;5003946;28;20525;-83
2023/07/18 08:16:41;;;;;;;10.60;4.80;;;;;;;;;;5004548;28;20014;-83
2023/07/18 08:19:07;;;;;;;5.80;4.65;;;;;;;;;;4999803;28;20405;-83
2023/07/18 08:21:33;;;;;;;10.05;5.03;;;;;;;;;;5000224;28;20030;-82
2023/07/18 08:23:58;;;;;;;7.40;4.80;;;;;;;;;;5003473;28;20398;-84
2023/07/18 08:26:24;;;;;;;8.30;5.00;;;;;;;;;;4999496;28;20022;-84
2023/07/18 08:28:49;;;;;;;6.82;5.20;;;;;;;;;;4998859;28;21802;-84
2023/07/18 08:31:14;;;;;;;9.73;5.53;;;;;;;;;;4996498;28;20037;-82
2023/07/18 08:33:40;;;;;;;6.22;4.53;;;;;;;;;;5000271;28;20097;-83
2023/07/18 08:36:05;;;;;;;5.90;3.80;;;;;;;;;;4998202;28;20030;-80
2023/07/18 08:38:30;;;;;;;8.65;4.55;;;;;;;;;;5000049;28;20081;-80
2023/07/18 08:40:58;;;;;;;9.95;4.78;;;;;;;;;;5001520;28;20030;-79
2023/07/18 08:43:24;;;;;;;7.00;4.40;;;;;;;;;;5001881;28;20033;-80
2023/07/18 08:45:50;;;;;;;7.32;4.10;;;;;;;;;;5000772;28;20033;-80
2023/07/18 08:48:16;;;;;;;6.60;4.55;;;;;;;;;;5010940;28;20092;-80
2023/07/18 08:50:42;;;;;;;6.50;4.20;;;;;;;;;;5021198;28;20030;-79
2023/07/18 08:53:07;;;;;;;10.65;4.43;;;;;;;;;;5020304;28;20038;-79
2023/07/18 08:55:32;;;;;;;6.35;4.35;;;;;;;;;;5004519;28;20118;-80
2023/07/18 08:57:59;;;;;;;6.55;4.60;;;;;;;;;;4999769;28;20050;-80
2023/07/18 09:00:25;;;;;;;11.95;4.70;;;;;;;;;;5002440;28;20415;-79
2023/07/18 09:02:50;;;;;;;4.55;4.00;;;;;;;;;;5007434;28;20029;-80
2023/07/18 09:05:35;;;;;;;8.77;4.63;;;;;;;;;;5014523;28;20552;-79
2023/07/18 09:08:02;;;;;;;10.00;4.93;;;;;;;;;;4982840;28;20033;-80
2023/07/18 09:10:29;;;;;;;6.07;4.22;;;;;;;;;;5010828;28;20032;-79
2023/07/18 09:12:59;;;;;;;6.90;4.50;;;;;;;;;;4999313;28;20081;-78
2023/07/18 09:15:24;;;;;;;10.77;4.60;;;;;;;;;;4997211;28;20030;-80
2023/07/18 09:17:58;;;;;;;8.75;5.10;;;;;;;;;;4999562;28;20018;-80
2023/07/18 09:20:25;;;;;;;9.20;5.22;;;;;;;;;;5003046;28;20422;-80
2023/07/18 09:22:56;;;;;;;8.00;4.68;;;;;;;;;;5018399;28;20026;-79
2023/07/18 09:25:23;;;;;;;8.30;4.55;;;;;;;;;;5020343;28;20030;-80
2023/07/18 09:27:55;;;;;;;6.30;4.47;;;;;;;;;;5020621;28;20049;-78
2023/07/18 09:30:36;;;;;;;5.90;4.32;;;;;;;;;;5019532;28;20021;-79
2023/07/18 09:33:05;;;;;;;7.20;4.53;;;;;;;;;;4982095;28;20441;-79
2023/07/18 09:35:35;;;;;;;6.25;4.28;;;;;;;;;;4978316;28;20367;-79
2023/07/18 09:38:02;;;;;;;7.15;4.18;;;;;;;;;;4979828;28;20022;-80
2023/07/18 09:40:28;;;;;;;5.63;3.88;;;;;;;;;;4979901;28;20033;-79
2023/07/18 09:42:58;;;;;;;7.20;4.35;;;;;;;;;;4980128;28;20450;-78
2023/07/18 09:45:24;;;;;;;11.38;4.15;;;;;;;;;;4980017;28;20014;-79
2023/07/18 09:47:51;;;;;;;7.88;4.20;;;;;;;;;;4990944;28;20021;-79
2023/07/18 09:50:16;;;;;;;6.70;3.90;;;;;;;;;;5018256;28;20033;-80
2023/07/18 09:52:49;;;;;;;5.28;3.75;;;;;;;;;;5018851;28;20151;-80
2023/07/18 09:55:18;;;;;;;8.20;3.70;;;;;;;;;;5019412;28;20026;-77
2023/07/18 10:00:11;;;;;;;9.27;4.80;;;;;;;;;;5010477;28;20045;-81
2023/07/18 10:02:39;;;;;;;6.85;4.03;;;;;;;;;;4996770;28;20045;-80
2023/07/18 10:05:05;;;;;;;8.82;4.40;;;;;;;;;;5014219;28;20037;-81
2023/07/18 10:07:35;;;;;;;8.88;3.95;;;;;;;;;;4999604;28;20350;-81
2023/07/18 10:10:01;;;;;;;6.60;3.70;;;;;;;;;;5011974;28;20441;-81
2023/07/18 10:12:27;;;;;;;11.63;4.20;;;;;;;;;;4995507;28;20033;-81
2023/07/18 10:14:57;;;;;;;4.72;4.03;;;;;;;;;;5014160;28;20037;-80
2023/07/18 10:17:31;;;;;;;6.57;4.15;;;;;;;;;;5014113;28;20013;-81
2023/07/18 10:19:57;;;;;;;7.57;4.07;;;;;;;;;;5019110;28;20033;-81
2023/07/18 10:22:29;;;;;;;8.20;4.03;;;;;;;;;;5022402;28;20112;-81
2023/07/18 10:25:00;;;;;;;4.93;3.83;;;;;;;;;;4999747;28;20322;-81
2023/07/18 10:27:35;;;;;;;7.47;4.00;;;;;;;;;;5005036;28;20050;-81
2023/07/18 10:30:05;;;;;;;14.02;4.32;;;;;;;;;;5003889;28;20088;-80
2023/07/18 10:32:32;;;;;;;8.18;4.68;;;;;;;;;;5014625;28;20094;-79
2023/07/18 10:34:58;;;;;;;6.10;3.95;;;;;;;;;;5019245;28;20486;-79
2023/07/18 10:37:26;;;;;;;6.20;4.32;;;;;;;;;;5016652;28;20038;-79
2023/07/18 10:39:53;;;;;;;6.78;4.32;;;;;;;;;;5012082;28;20485;-80
2023/07/18 10:42:26;;;;;;;9.57;4.57;;;;;;;;;;4994906;28;20069;-80
2023/07/18 10:44:57;;;;;;;7.35;4.13;;;;;;;;;;5012842;28;20393;-78
2023/07/18 10:47:22;;;;;;;7.68;4.05;;;;;;;;;;5011683;28;20053;-79
2023/07/18 10:49:47;;;;;;;6.40;4.32;;;;;;;;;;5009814;28;20046;-82
2023/07/18 10:52:14;;;;;;;10.05;4.63;;;;;;;;;;5017440;28;20347;-81
2023/07/18 10:54:50;;;;;;;8.23;4.25;;;;;;;;;;5015535;28;20389;-81
2023/07/18 10:57:16;;;;;;;9.30;3.88;;;;;;;;;;5008628;28;20030;-79
2023/07/18 10:59:44;;;;;;;7.10;4.30;;;;;;;;;;5013848;28;20034;-81
2023/07/18 11:02:11;;;;;;;6.90;4.03;;;;;;;;;;5009200;28;20406;-80
2023/07/18 11:04:36;;;;;;;5.68;4.00;;;;;;;;;;5011762;28;20120;-80
2023/07/18 11:07:02;;;;;;;7.32;4.20;;;;;;;;;;4997635;28;20056;-81
2023/07/18 11:09:27;;;;;;;5.53;3.83;;;;;;;;;;5013152;28;20222;-81
2023/07/18 11:11:54;;;;;;;6.28;4.18;;;;;;;;;;5011626;28;20026;-81
2023/07/18 11:14:20;;;;;;;6.63;4.18;;;;;;;;;;5009059;28;20121;-80
2023/07/18 11:16:49;;;;;;;19.17;4.05;;;;;;;;;;5011717;28;20122;-80
2023/07/18 11:19:15;;;;;;;5.90;4.05;;;;;;;;;;5013149;28;20448;-80
2023/07/18 11:21:41;;;;;;;6.20;4.10;;;;;;;;;;5009716;28;20045;-80
2023/07/18 11:24:07;;;;;;;7.03;4.20;;;;;;;;;;5010884;28;20037;-80
2023/07/18 11:26:32;;;;;;;7.93;3.92;;;;;;;;;;5018134;28;20044;-80
2023/07/18 11:28:57;;;;;;;7.05;4.30;;;;;;;;;;5014196;28;20044;-80
2023/07/18 11:31:26;;;;;;;7.88;4.18;;;;;;;;;;4998811;28;20481;-81
2023/07/18 11:33:59;;;;;;;6.78;3.85;;;;;;;;;;5014047;28;20030;-81
2023/07/18 11:36:30;;;;;;;13.20;4.25;;;;;;;;;;5013435;28;20227;-81
2023/07/18 11:38:58;;;;;;;9.73;4.20;;;;;;;;;;5013657;28;20034;-79
2023/07/18 11:41:32;;;;;;;5.85;3.97;;;;;;;;;;5015186;28;20030;-80
2023/07/18 11:43:58;;;;;;;11.27;4.28;;;;;;;;;;5013012;28;20033;-80
2023/07/18 11:46:42;;;;;;;5.28;4.10;;;;;;;;;;5011653;28;20038;-80
2023/07/18 11:49:09;;;;;;;7.28;4.00;;;;;;;;;;5001631;28;20030;-80
2023/07/18 11:51:35;;;;;;;8.55;4.80;;;;;;;;;;5011131;28;20038;-81
2023/07/18 11:54:02;;;;;;;5.78;3.83;;;;;;;;;;5010169;28;20037;-81
2023/07/18 11:56:31;;;;;;;8.70;4.53;;;;;;;;;;5009483;28;20033;-80
2023/07/18 11:58:57;;;;;;;6.57;4.00;;;;;;;;;;5010528;28;20044;-81
2023/07/18 12:01:22;;;;;;;6.55;3.45;;;;;;;;;;5017733;28;20042;-80
2023/07/18 12:03:51;;;;;;;5.72;4.25;;;;;;;;;;5015157;28;20030;-80
2023/07/18 12:06:16;;;;;;;8.68;4.22;;;;;;;;;;5017627;28;20128;-80
2023/07/18 12:08:42;;;;;;;11.80;4.40;;;;;;;;;;5001002;28;20041;-80
2023/07/18 12:11:09;;;;;;;11.90;3.97;;;;;;;;;;5012182;28;20064;-82
2023/07/18 12:13:36;;;;;;;9.98;3.83;;;;;;;;;;5016707;28;20026;-82
2023/07/18 12:16:01;;;;;;;5.45;3.70;;;;;;;;;;4998739;28;20034;-81
2023/07/18 12:18:27;;;;;;;7.32;3.85;;;;;;;;;;5017297;28;20030;-81
2023/07/18 12:20:53;;;;;;;9.05;3.60;;;;;;;;;;5021050;28;20057;-79
2023/07/18 12:23:18;;;;;;;7.68;3.95;;;;;;;;;;5013772;28;20010;-80
2023/07/18 12:25:43;;;;;;;6.75;3.78;;;;;;;;;;5002980;28;20029;-79
2023/07/18 12:28:09;;;;;;;8.80;3.97;;;;;;;;;;5013996;28;20022;-82
2023/07/18 12:30:34;;;;;;;8.30;4.32;;;;;;;;;;5016246;28;20079;-80
2023/07/18 12:33:00;;;;;;;4.75;3.58;;;;;;;;;;5013179;28;20245;-79
2023/07/18 12:35:26;;;;;;;7.63;4.13;;;;;;;;;;5013205;28;20104;-81
2023/07/18 12:37:54;;;;;;;8.27;3.70;;;;;;;;;;5013859;28;20038;-80
2023/07/18 12:40:20;;;;;;;9.00;3.83;;;;;;;;;;4999684;28;20030;-80
2023/07/18 12:42:45;;;;;;;6.03;3.55;;;;;;;;;;5017393;28;20478;-79
2023/07/18 12:45:11;;;;;;;6.85;3.55;;;;;;;;;;5016213;28;20029;-81
2023/07/18 12:47:36;;;;;;;8.98;4.43;;;;;;;;;;5014776;28;20026;-81
2023/07/18 12:50:03;;;;;;;7.57;4.95;;;;;;;;;;5016698;28;20018;-81
2023/07/18 12:52:29;;;;;;;9.95;4.60;;;;;;;;;;5014752;28;20034;-78
2023/07/18 12:54:55;;;;;;;12.50;5.10;;;;;;;;;;5016337;28;20156;-80
2023/07/18 12:57:20;;;;;;;9.70;5.03;;;;;;;;;;5017146;28;20076;-80
2023/07/18 12:59:46;;;;;;;8.98;4.80;;;;;;;;;;5017127;28;20537;-81
2023/07/18 13:02:13;;;;;;;7.35;4.60;;;;;;;;;;5017154;28;20053;-81
2023/07/18 13:04:38;;;;;;;9.65;4.55;;;;;;;;;;5007302;28;20025;-81
2023/07/18 13:07:04;;;;;;;11.93;4.20;;;;;;;;;;5015927;28;20052;-81
2023/07/18 13:09:30;;;;;;;7.15;4.43;;;;;;;;;;5019293;28;20037;-82
2023/07/18 13:11:55;;;;;;;11.30;5.30;;;;;;;;;;5026405;28;20065;-81
2023/07/18 13:14:21;;;;;;;6.85;4.25;;;;;;;;;;5019136;28;20018;-81
2023/07/18 13:16:47;;;;;;;8.23;4.40;;;;;;;;;;5021989;28;20273;-81
2023/07/18 13:19:12;;;;;;;6.15;5.03;;;;;;;;;;5003001;28;20040;-81
2023/07/18 13:21:37;;;;;;;14.68;4.93;;;;;;;;;;4999828;28;20049;-81
2023/07/18 13:24:03;;;;;;;5.25;4.15;;;;;;;;;;5020114;28;20025;-81
2023/07/18 13:26:28;;;;;;;5.63;3.95;;;;;;;;;;4995988;28;20018;-80
2023/07/18 13:28:54;;;;;;;5.57;3.70;;;;;;;;;;5017095;28;20080;-80
2023/07/18 13:31:19;;;;;;;8.57;4.43;;;;;;;;;;5014918;28;20029;-81
2023/07/18 13:33:45;;;;;;;8.23;4.40;;;;;;;;;;5014386;28;20386;-80
2023/07/18 13:36:11;;;;;;;13.00;4.57;;;;;;;;;;4996640;28;20026;-80
2023/07/18 13:38:36;;;;;;;8.15;4.60;;;;;;;;;;5023537;28;20044;-81
2023/07/18 13:41:07;;;;;;;6.65;4.88;;;;;;;;;;5011301;28;20025;-80
2023/07/18 13:43:33;;;;;;;9.52;4.80;;;;;;;;;;5014059;28;20026;-80
2023/07/18 13:45:58;;;;;;;6.30;4.55;;;;;;;;;;5024146;28;20033;-82
2023/07/18 13:48:23;;;;;;;11.27;4.90;;;;;;;;;;5015174;28;20462;-79
2023/07/18 13:50:49;;;;;;;8.88;4.75;;;;;;;;;;5014885;28;20021;-81
2023/07/18 13:53:14;;;;;;;9.95;5.22;;;;;;;;;;5015240;28;20095;-81
2023/07/18 13:55:39;;;;;;;16.30;4.93;;;;;;;;;;5014791;28;20080;-81
2023/07/18 13:58:05;;;;;;;10.68;4.68;;;;;;;;;;5021239;28;20496;-80
2023/07/18 14:00:31;;;;;;;9.20;4.85;;;;;;;;;;4997761;28;20026;-81
2023/07/18 14:02:56;;;;;;;8.45;4.70;;;;;;;;;;5016079;28;20300;-80
2023/07/18 14:05:21;;;;;;;8.68;5.05;;;;;;;;;;5016250;28;20022;-81
2023/07/18 14:07:47;;;;;;;7.63;4.82;;;;;;;;;;5016291;28;20106;-80
2023/07/18 14:10:12;;;;;;;7.32;4.50;;;;;;;;;;5001164;28;20049;-81
2023/07/18 14:12:38;;;;;;;13.02;4.97;;;;;;;;;;5003389;28;20022;-80
2023/07/18 14:15:03;;;;;;;4.72;4.32;;;;;;;;;;5015662;28;20520;-81
2023/07/18 14:17:29;;;;;;;7.05;4.50;;;;;;;;;;5003181;28;20056;-81
2023/07/18 14:19:54;;;;;;;8.70;4.30;;;;;;;;;;5003277;28;20114;-80
2023/07/18 14:22:20;;;;;;;11.90;4.88;;;;;;;;;;5015526;28;20046;-81
2023/07/18 14:24:47;;;;;;;10.57;5.60;;;;;;;;;;5010411;28;20092;-81
2023/07/18 14:27:12;;;;;;;12.95;4.97;;;;;;;;;;5014093;28;20212;-80
2023/07/18 14:29:38;;;;;;;7.32;4.30;;;;;;;;;;5011295;28;20450;-80
2023/07/18 14:32:05;;;;;;;7.95;3.97;;;;;;;;;;5010348;28;20521;-80
2023/07/18 14:34:30;;;;;;;5.35;4.40;;;;;;;;;;5013775;28;20029;-81
2023/07/18 14:36:55;;;;;;;5.43;3.90;;;;;;;;;;5012090;28;20108;-79